sensor_id;sensor_type;location;lat;lon;timestamp;temperature;humidity
13598;DHT22;38563;54.258;12.574;2022-09-17T00:01:25;9.90;99.90
13598;DHT22;38563;54.258;12.574;2022-09-17T00:03:54;10.00;99.90
13598;DHT22;38563;54.258;12.574;2022-09-17T00:06:21;9.90;99.90
13598;DHT22;38563;54.258;12.574;2022-09-17T00:08:48;9.90;99.90
13598;DHT22;38563;54.258;12.574;2022-09-17T00:11:17;9.90;99.90
13598;DHT22;38563;54.258;12.574;2022-09-17T00:13:46;9.90;99.90
13598;DHT22;38563;54.258;12.574;2022-09-17T00:16:21;9.90;99.90
13598;DHT22;38563;54.258;12.574;2022-09-17T00:18:48;10.00;99.90
13598;DHT22;38563;54.258;12.574;2022-09-17T00:21:15;10.10;99.90
13598;DHT22;38563;54.258;12.574;2022-09-17T00:23:42;10.10;99.90
13598;DHT22;38563;54.258;12.574;2022-09-17T00:26:09;10.20;99.90
13598;DHT22;38563;54.258;12.574;2022-09-17T00:28:35;10.30;99.90
13598;DHT22;38563;54.258;12.574;2022-09-17T00:31:06;10.40;99.90
13598;DHT22;38563;54.258;12.574;2022-09-17T00:33:34;10.40;99.90
13598;DHT22;38563;54.258;12.574;2022-09-17T00:36:02;10.50;99.90
13598;DHT22;38563;54.258;12.574;2022-09-17T00:38:29;10.50;99.90
13598;DHT22;38563;54.258;12.574;2022-09-17T00:40:56;10.40;99.90
13598;DHT22;38563;54.258;12.574;2022-09-17T00:43:38;10.40;99.90
13598;DHT22;38563;54.258;12.574;2022-09-17T00:46:13;10.30;99.90
13598;DHT22;38563;54.258;12.574;2022-09-17T00:48:45;10.30;99.90
13598;DHT22;38563;54.258;12.574;2022-09-17T00:51:16;10.30;99.90
13598;DHT22;38563;54.258;12.574;2022-09-17T00:53:43;10.30;99.90
13598;DHT22;38563;54.258;12.574;2022-09-17T00:56:14;10.20;99.90
13598;DHT22;38563;54.258;12.574;2022-09-17T00:58:44;10.10;99.90
13598;DHT22;38563;54.258;12.574;2022-09-17T01:01:11;10.10;99.90
13598;DHT22;38563;54.258;12.574;2022-09-17T01:03:38;10.00;99.90
13598;DHT22;38563;54.258;12.574;2022-09-17T01:06:11;9.90;99.90
13598;DHT22;38563;54.258;12.574;2022-09-17T01:08:51;9.90;99.90
13598;DHT22;38563;54.258;12.574;2022-09-17T01:11:44;9.80;99.90
13598;DHT22;38563;54.258;12.574;2022-09-17T01:14:21;9.70;99.90
13598;DHT22;38563;54.258;12.574;2022-09-17T01:16:58;9.70;99.90
13598;DHT22;38563;54.258;12.574;2022-09-17T01:20:06;9.70;99.90
13598;DHT22;38563;54.258;12.574;2022-09-17T01:22:44;9.80;99.90
13598;DHT22;38563;54.258;12.574;2022-09-17T01:25:21;9.90;99.90
13598;DHT22;38563;54.258;12.574;2022-09-17T01:28:13;9.90;99.90
13598;DHT22;38563;54.258;12.574;2022-09-17T01:31:14;10.00;99.90
13598;DHT22;38563;54.258;12.574;2022-09-17T01:33:50;10.00;99.90
13598;DHT22;38563;54.258;12.574;2022-09-17T01:36:36;9.90;99.90
13598;DHT22;38563;54.258;12.574;2022-09-17T01:39:11;9.90;99.90
13598;DHT22;38563;54.258;12.574;2022-09-17T01:41:44;9.90;99.90
13598;DHT22;38563;54.258;12.574;2022-09-17T01:44:18;9.80;99.90
13598;DHT22;38563;54.258;12.574;2022-09-17T01:46:51;9.80;99.90
13598;DHT22;38563;54.258;12.574;2022-09-17T01:49:20;9.90;99.90
13598;DHT22;38563;54.258;12.574;2022-09-17T01:51:50;9.90;99.90
13598;DHT22;38563;54.258;12.574;2022-09-17T01:54:24;9.90;99.90
13598;DHT22;38563;54.258;12.574;2022-09-17T01:56:55;10.00;99.90
13598;DHT22;38563;54.258;12.574;2022-09-17T01:59:28;10.00;99.90
13598;DHT22;38563;54.258;12.574;2022-09-17T02:02:01;10.00;99.90
13598;DHT22;38563;54.258;12.574;2022-09-17T02:04:34;10.00;99.90
13598;DHT22;38563;54.258;12.574;2022-09-17T02:07:06;10.10;99.90
13598;DHT22;38563;54.258;12.574;2022-09-17T02:09:40;10.20;99.90
13598;DHT22;38563;54.258;12.574;2022-09-17T02:12:17;10.20;99.90
13598;DHT22;38563;54.258;12.574;2022-09-17T02:14:48;10.20;99.90
13598;DHT22;38563;54.258;12.574;2022-09-17T02:17:21;10.20;99.90
13598;DHT22;38563;54.258;12.574;2022-09-17T02:19:50;10.10;99.90
13598;DHT22;38563;54.258;12.574;2022-09-17T02:22:21;10.10;99.90
13598;DHT22;38563;54.258;12.574;2022-09-17T02:24:58;10.00;99.90
13598;DHT22;38563;54.258;12.574;2022-09-17T02:27:36;9.90;99.90
13598;DHT22;38563;54.258;12.574;2022-09-17T02:30:06;9.90;99.90
13598;DHT22;38563;54.258;12.574;2022-09-17T02:32:34;9.90;99.90
13598;DHT22;38563;54.258;12.574;2022-09-17T02:35:01;9.90;99.90
13598;DHT22;38563;54.258;12.574;2022-09-17T02:37:28;9.90;99.90
13598;DHT22;38563;54.258;12.574;2022-09-17T02:39:55;9.90;99.90
13598;DHT22;38563;54.258;12.574;2022-09-17T02:42:28;9.90;99.90
13598;DHT22;38563;54.258;12.574;2022-09-17T02:45:04;10.00;99.90
13598;DHT22;38563;54.258;12.574;2022-09-17T02:47:56;9.90;99.90
13598;DHT22;38563;54.258;12.574;2022-09-17T02:50:39;9.90;99.90
13598;DHT22;38563;54.258;12.574;2022-09-17T02:53:21;10.00;99.90
13598;DHT22;38563;54.258;12.574;2022-09-17T02:55:59;9.90;99.90
13598;DHT22;38563;54.258;12.574;2022-09-17T02:58:31;10.00;99.90
13598;DHT22;38563;54.258;12.574;2022-09-17T03:01:03;9.90;99.90
13598;DHT22;38563;54.258;12.574;2022-09-17T03:03:35;10.00;99.90
13598;DHT22;38563;54.258;12.574;2022-09-17T03:06:03;10.00;99.90
13598;DHT22;38563;54.258;12.574;2022-09-17T03:08:33;9.90;99.90
13598;DHT22;38563;54.258;12.574;2022-09-17T03:11:01;9.70;99.90
13598;DHT22;38563;54.258;12.574;2022-09-17T03:13:29;9.60;99.90
13598;DHT22;38563;54.258;12.574;2022-09-17T03:15:56;9.50;99.90
13598;DHT22;38563;54.258;12.574;2022-09-17T03:18:23;9.50;99.90
13598;DHT22;38563;54.258;12.574;2022-09-17T03:20:51;9.40;99.90
13598;DHT22;38563;54.258;12.574;2022-09-17T03:23:17;9.50;99.90
13598;DHT22;38563;54.258;12.574;2022-09-17T03:25:44;9.40;99.90
13598;DHT22;38563;54.258;12.574;2022-09-17T03:28:12;9.40;99.90
13598;DHT22;38563;54.258;12.574;2022-09-17T03:30:38;9.40;99.90
13598;DHT22;38563;54.258;12.574;2022-09-17T03:33:05;9.40;99.90
13598;DHT22;38563;54.258;12.574;2022-09-17T03:35:31;9.40;99.90
13598;DHT22;38563;54.258;12.574;2022-09-17T03:37:59;9.30;99.90
13598;DHT22;38563;54.258;12.574;2022-09-17T03:40:26;9.30;99.90
13598;DHT22;38563;54.258;12.574;2022-09-17T03:42:53;9.30;99.90
13598;DHT22;38563;54.258;12.574;2022-09-17T03:45:19;9.30;99.90
13598;DHT22;38563;54.258;12.574;2022-09-17T03:47:46;9.20;99.90
13598;DHT22;38563;54.258;12.574;2022-09-17T03:50:13;9.20;99.90
13598;DHT22;38563;54.258;12.574;2022-09-17T03:52:41;9.20;99.90
13598;DHT22;38563;54.258;12.574;2022-09-17T03:55:09;9.20;99.90
13598;DHT22;38563;54.258;12.574;2022-09-17T03:57:36;9.30;99.90
13598;DHT22;38563;54.258;12.574;2022-09-17T04:00:04;9.50;99.90
13598;DHT22;38563;54.258;12.574;2022-09-17T04:02:37;9.60;99.90
13598;DHT22;38563;54.258;12.574;2022-09-17T04:05:05;9.70;99.90
13598;DHT22;38563;54.258;12.574;2022-09-17T04:07:32;9.80;99.90
13598;DHT22;38563;54.258;12.574;2022-09-17T04:09:59;9.90;99.90
13598;DHT22;38563;54.258;12.574;2022-09-17T04:12:27;9.90;99.90
13598;DHT22;38563;54.258;12.574;2022-09-17T04:14:53;9.90;99.90
13598;DHT22;38563;54.258;12.574;2022-09-17T04:17:20;10.00;99.90
13598;DHT22;38563;54.258;12.574;2022-09-17T04:19:46;10.20;99.90
13598;DHT22;38563;54.258;12.574;2022-09-17T04:22:14;10.30;99.90
13598;DHT22;38563;54.258;12.574;2022-09-17T04:24:41;10.40;99.90
13598;DHT22;38563;54.258;12.574;2022-09-17T04:27:07;10.50;99.90
13598;DHT22;38563;54.258;12.574;2022-09-17T04:29:35;10.60;99.90
13598;DHT22;38563;54.258;12.574;2022-09-17T04:32:02;10.70;99.90
13598;DHT22;38563;54.258;12.574;2022-09-17T04:34:29;10.80;99.90
13598;DHT22;38563;54.258;12.574;2022-09-17T04:36:56;11.00;99.90
13598;DHT22;38563;54.258;12.574;2022-09-17T04:39:23;11.10;99.90
13598;DHT22;38563;54.258;12.574;2022-09-17T04:41:50;11.10;99.90
13598;DHT22;38563;54.258;12.574;2022-09-17T04:44:17;11.20;99.90
13598;DHT22;38563;54.258;12.574;2022-09-17T04:46:45;11.30;99.90
13598;DHT22;38563;54.258;12.574;2022-09-17T04:49:12;11.40;99.90
13598;DHT22;38563;54.258;12.574;2022-09-17T04:51:39;11.40;99.90
13598;DHT22;38563;54.258;12.574;2022-09-17T04:54:06;11.50;99.90
13598;DHT22;38563;54.258;12.574;2022-09-17T04:56:32;11.50;99.90
13598;DHT22;38563;54.258;12.574;2022-09-17T04:58:59;11.50;99.90
13598;DHT22;38563;54.258;12.574;2022-09-17T05:01:26;11.50;99.90
13598;DHT22;38563;54.258;12.574;2022-09-17T05:03:54;11.50;99.90
13598;DHT22;38563;54.258;12.574;2022-09-17T05:06:20;11.50;99.90
13598;DHT22;38563;54.258;12.574;2022-09-17T05:08:47;11.60;99.90
13598;DHT22;38563;54.258;12.574;2022-09-17T05:11:14;11.60;99.90
13598;DHT22;38563;54.258;12.574;2022-09-17T05:13:40;11.50;99.90
13598;DHT22;38563;54.258;12.574;2022-09-17T05:16:07;11.50;99.90
13598;DHT22;38563;54.258;12.574;2022-09-17T05:18:34;11.50;99.90
13598;DHT22;38563;54.258;12.574;2022-09-17T05:21:02;11.50;99.90
13598;DHT22;38563;54.258;12.574;2022-09-17T05:23:28;11.60;99.90
13598;DHT22;38563;54.258;12.574;2022-09-17T05:25:57;11.70;99.90
13598;DHT22;38563;54.258;12.574;2022-09-17T05:28:23;11.70;99.90
13598;DHT22;38563;54.258;12.574;2022-09-17T05:30:50;11.80;99.90
13598;DHT22;38563;54.258;12.574;2022-09-17T05:33:17;11.90;99.90
13598;DHT22;38563;54.258;12.574;2022-09-17T05:35:44;12.00;99.90
13598;DHT22;38563;54.258;12.574;2022-09-17T05:38:12;12.00;99.90
13598;DHT22;38563;54.258;12.574;2022-09-17T05:40:38;12.10;99.90
13598;DHT22;38563;54.258;12.574;2022-09-17T05:43:08;12.20;99.90
13598;DHT22;38563;54.258;12.574;2022-09-17T05:45:35;12.30;99.90
13598;DHT22;38563;54.258;12.574;2022-09-17T05:48:04;12.50;99.90
13598;DHT22;38563;54.258;12.574;2022-09-17T05:50:32;12.60;99.90
13598;DHT22;38563;54.258;12.574;2022-09-17T05:53:03;12.70;99.90
13598;DHT22;38563;54.258;12.574;2022-09-17T05:55:32;12.70;99.90
13598;DHT22;38563;54.258;12.574;2022-09-17T05:57:59;12.80;99.90
13598;DHT22;38563;54.258;12.574;2022-09-17T06:00:26;12.90;99.90
13598;DHT22;38563;54.258;12.574;2022-09-17T06:02:53;12.90;99.90
13598;DHT22;38563;54.258;12.574;2022-09-17T06:05:20;12.90;99.90
13598;DHT22;38563;54.258;12.574;2022-09-17T06:07:47;12.90;99.90
13598;DHT22;38563;54.258;12.574;2022-09-17T06:10:13;12.90;99.90
13598;DHT22;38563;54.258;12.574;2022-09-17T06:12:41;13.00;99.90
13598;DHT22;38563;54.258;12.574;2022-09-17T06:15:09;13.00;99.90
13598;DHT22;38563;54.258;12.574;2022-09-17T06:17:39;13.00;99.90
13598;DHT22;38563;54.258;12.574;2022-09-17T06:20:07;13.00;99.90
13598;DHT22;38563;54.258;12.574;2022-09-17T06:22:34;13.00;99.90
13598;DHT22;38563;54.258;12.574;2022-09-17T06:25:01;13.00;99.90
13598;DHT22;38563;54.258;12.574;2022-09-17T06:27:29;12.90;99.90
13598;DHT22;38563;54.258;12.574;2022-09-17T06:29:58;12.80;99.90
13598;DHT22;38563;54.258;12.574;2022-09-17T06:32:25;12.80;99.90
13598;DHT22;38563;54.258;12.574;2022-09-17T06:34:52;12.70;99.90
13598;DHT22;38563;54.258;12.574;2022-09-17T06:37:20;12.70;99.90
13598;DHT22;38563;54.258;12.574;2022-09-17T06:39:52;12.70;99.90
13598;DHT22;38563;54.258;12.574;2022-09-17T06:42:19;12.60;99.90
13598;DHT22;38563;54.258;12.574;2022-09-17T06:44:45;12.60;99.90
13598;DHT22;38563;54.258;12.574;2022-09-17T06:47:14;12.60;99.90
13598;DHT22;38563;54.258;12.574;2022-09-17T06:49:40;12.60;99.90
13598;DHT22;38563;54.258;12.574;2022-09-17T06:52:07;12.50;99.90
13598;DHT22;38563;54.258;12.574;2022-09-17T06:54:33;12.50;99.90
13598;DHT22;38563;54.258;12.574;2022-09-17T06:57:00;12.50;99.90
13598;DHT22;38563;54.258;12.574;2022-09-17T06:59:27;12.50;99.90
13598;DHT22;38563;54.258;12.574;2022-09-17T07:01:53;12.40;99.90
13598;DHT22;38563;54.258;12.574;2022-09-17T07:04:22;12.40;99.90
13598;DHT22;38563;54.258;12.574;2022-09-17T07:06:48;12.30;99.90
13598;DHT22;38563;54.258;12.574;2022-09-17T07:09:15;12.40;99.90
13598;DHT22;38563;54.258;12.574;2022-09-17T07:11:43;12.30;99.90
13598;DHT22;38563;54.258;12.574;2022-09-17T07:14:10;12.30;99.90
13598;DHT22;38563;54.258;12.574;2022-09-17T07:16:37;12.30;99.90
13598;DHT22;38563;54.258;12.574;2022-09-17T07:19:04;12.30;99.90
13598;DHT22;38563;54.258;12.574;2022-09-17T07:21:32;12.40;99.90
13598;DHT22;38563;54.258;12.574;2022-09-17T07:23:59;12.40;99.90
13598;DHT22;38563;54.258;12.574;2022-09-17T07:26:26;12.40;99.90
13598;DHT22;38563;54.258;12.574;2022-09-17T07:28:52;12.40;99.90
13598;DHT22;38563;54.258;12.574;2022-09-17T07:31:19;12.40;99.90
13598;DHT22;38563;54.258;12.574;2022-09-17T07:33:46;12.40;99.90
13598;DHT22;38563;54.258;12.574;2022-09-17T07:36:14;12.40;99.90
13598;DHT22;38563;54.258;12.574;2022-09-17T07:38:43;12.40;99.90
13598;DHT22;38563;54.258;12.574;2022-09-17T07:41:11;12.30;99.90
13598;DHT22;38563;54.258;12.574;2022-09-17T07:43:39;12.20;99.90
13598;DHT22;38563;54.258;12.574;2022-09-17T07:46:07;12.10;99.90
13598;DHT22;38563;54.258;12.574;2022-09-17T07:48:38;12.10;99.90
13598;DHT22;38563;54.258;12.574;2022-09-17T07:51:05;12.00;99.90
13598;DHT22;38563;54.258;12.574;2022-09-17T07:53:32;11.90;99.90
13598;DHT22;38563;54.258;12.574;2022-09-17T07:56:01;11.90;99.90
13598;DHT22;38563;54.258;12.574;2022-09-17T07:58:29;11.90;99.90
13598;DHT22;38563;54.258;12.574;2022-09-17T08:00:59;11.80;99.90
13598;DHT22;38563;54.258;12.574;2022-09-17T08:03:26;11.80;99.90
13598;DHT22;38563;54.258;12.574;2022-09-17T08:05:52;11.80;99.90
13598;DHT22;38563;54.258;12.574;2022-09-17T08:08:19;11.90;99.90
13598;DHT22;38563;54.258;12.574;2022-09-17T08:10:46;11.90;99.90
13598;DHT22;38563;54.258;12.574;2022-09-17T08:13:14;11.90;99.90
13598;DHT22;38563;54.258;12.574;2022-09-17T08:15:40;11.90;99.90
13598;DHT22;38563;54.258;12.574;2022-09-17T08:18:07;11.90;99.90
13598;DHT22;38563;54.258;12.574;2022-09-17T08:20:33;11.80;99.90
13598;DHT22;38563;54.258;12.574;2022-09-17T08:23:00;11.80;99.90
13598;DHT22;38563;54.258;12.574;2022-09-17T08:25:27;11.80;99.90
13598;DHT22;38563;54.258;12.574;2022-09-17T08:27:54;11.80;99.90
13598;DHT22;38563;54.258;12.574;2022-09-17T08:30:22;11.80;99.90
13598;DHT22;38563;54.258;12.574;2022-09-17T08:32:49;11.80;99.90
13598;DHT22;38563;54.258;12.574;2022-09-17T08:35:16;11.80;99.90
13598;DHT22;38563;54.258;12.574;2022-09-17T08:37:42;11.90;99.90
13598;DHT22;38563;54.258;12.574;2022-09-17T08:40:15;11.90;99.90
13598;DHT22;38563;54.258;12.574;2022-09-17T08:42:50;11.90;99.90
13598;DHT22;38563;54.258;12.574;2022-09-17T08:45:19;12.00;99.90
13598;DHT22;38563;54.258;12.574;2022-09-17T08:47:48;12.00;99.90
13598;DHT22;38563;54.258;12.574;2022-09-17T08:50:21;12.00;99.90
13598;DHT22;38563;54.258;12.574;2022-09-17T08:53:03;12.00;99.90
13598;DHT22;38563;54.258;12.574;2022-09-17T08:55:38;12.00;99.90
13598;DHT22;38563;54.258;12.574;2022-09-17T08:58:27;12.00;99.90
13598;DHT22;38563;54.258;12.574;2022-09-17T09:01:06;11.90;99.90
13598;DHT22;38563;54.258;12.574;2022-09-17T09:03:48;11.90;99.90
13598;DHT22;38563;54.258;12.574;2022-09-17T09:06:23;11.80;99.90
13598;DHT22;38563;54.258;12.574;2022-09-17T09:08:56;11.80;99.90
13598;DHT22;38563;54.258;12.574;2022-09-17T09:11:26;11.70;99.90
13598;DHT22;38563;54.258;12.574;2022-09-17T09:14:00;11.60;99.90
13598;DHT22;38563;54.258;12.574;2022-09-17T09:16:32;11.30;99.90
13598;DHT22;38563;54.258;12.574;2022-09-17T09:19:11;11.20;99.90
13598;DHT22;38563;54.258;12.574;2022-09-17T09:21:46;11.10;99.90
13598;DHT22;38563;54.258;12.574;2022-09-17T09:24:18;11.10;99.90
13598;DHT22;38563;54.258;12.574;2022-09-17T09:26:53;11.20;99.90
13598;DHT22;38563;54.258;12.574;2022-09-17T09:29:34;11.30;99.90
13598;DHT22;38563;54.258;12.574;2022-09-17T09:32:15;11.30;99.90
13598;DHT22;38563;54.258;12.574;2022-09-17T09:34:48;11.40;99.90
13598;DHT22;38563;54.258;12.574;2022-09-17T09:37:18;11.50;99.90
13598;DHT22;38563;54.258;12.574;2022-09-17T09:39:50;11.60;99.90
13598;DHT22;38563;54.258;12.574;2022-09-17T09:42:26;11.60;99.90
13598;DHT22;38563;54.258;12.574;2022-09-17T09:44:56;11.70;99.90
13598;DHT22;38563;54.258;12.574;2022-09-17T09:47:35;11.70;99.90
13598;DHT22;38563;54.258;12.574;2022-09-17T09:50:17;11.80;99.90
13598;DHT22;38563;54.258;12.574;2022-09-17T09:52:58;11.80;99.90
13598;DHT22;38563;54.258;12.574;2022-09-17T09:55:53;11.90;99.90
13598;DHT22;38563;54.258;12.574;2022-09-17T09:58:30;11.90;99.90
13598;DHT22;38563;54.258;12.574;2022-09-17T10:00:59;11.90;99.90
13598;DHT22;38563;54.258;12.574;2022-09-17T10:03:27;11.90;99.90
13598;DHT22;38563;54.258;12.574;2022-09-17T10:05:59;11.90;99.90
13598;DHT22;38563;54.258;12.574;2022-09-17T10:08:28;11.90;99.90
13598;DHT22;38563;54.258;12.574;2022-09-17T10:10:59;11.90;99.90
13598;DHT22;38563;54.258;12.574;2022-09-17T10:13:27;11.90;99.90
13598;DHT22;38563;54.258;12.574;2022-09-17T10:15:54;12.00;99.90
13598;DHT22;38563;54.258;12.574;2022-09-17T10:18:23;11.90;99.90
13598;DHT22;38563;54.258;12.574;2022-09-17T10:20:55;11.90;99.90
13598;DHT22;38563;54.258;12.574;2022-09-17T10:23:25;12.00;99.90
13598;DHT22;38563;54.258;12.574;2022-09-17T10:25:53;11.90;99.90
13598;DHT22;38563;54.258;12.574;2022-09-17T10:28:29;11.90;99.90
13598;DHT22;38563;54.258;12.574;2022-09-17T10:30:56;11.90;99.90
13598;DHT22;38563;54.258;12.574;2022-09-17T10:33:25;11.90;99.90
13598;DHT22;38563;54.258;12.574;2022-09-17T10:35:58;11.90;99.90
13598;DHT22;38563;54.258;12.574;2022-09-17T10:38:29;11.80;99.90
13598;DHT22;38563;54.258;12.574;2022-09-17T10:41:17;11.80;99.90
13598;DHT22;38563;54.258;12.574;2022-09-17T10:43:46;11.70;99.90
13598;DHT22;38563;54.258;12.574;2022-09-17T10:46:16;11.70;99.90
13598;DHT22;38563;54.258;12.574;2022-09-17T10:48:47;11.70;99.90
13598;DHT22;38563;54.258;12.574;2022-09-17T10:51:22;11.80;99.90
13598;DHT22;38563;54.258;12.574;2022-09-17T10:54:21;11.90;99.90
13598;DHT22;38563;54.258;12.574;2022-09-17T10:56:53;11.90;99.90
13598;DHT22;38563;54.258;12.574;2022-09-17T10:59:39;11.90;99.90
13598;DHT22;38563;54.258;12.574;2022-09-17T11:02:39;11.80;99.90
13598;DHT22;38563;54.258;12.574;2022-09-17T11:05:27;11.70;99.90
13598;DHT22;38563;54.258;12.574;2022-09-17T11:07:59;11.70;99.90
13598;DHT22;38563;54.258;12.574;2022-09-17T11:10:29;11.70;99.90
13598;DHT22;38563;54.258;12.574;2022-09-17T11:13:09;11.70;99.90
13598;DHT22;38563;54.258;12.574;2022-09-17T11:15:48;11.70;99.90
13598;DHT22;38563;54.258;12.574;2022-09-17T11:18:38;11.80;99.90
13598;DHT22;38563;54.258;12.574;2022-09-17T11:24:31;11.80;99.90
13598;DHT22;38563;54.258;12.574;2022-09-17T11:27:08;11.50;99.90
13598;DHT22;38563;54.258;12.574;2022-09-17T11:29:49;11.20;99.90
13598;DHT22;38563;54.258;12.574;2022-09-17T11:35:24;11.20;99.90
13598;DHT22;38563;54.258;12.574;2022-09-17T11:37:56;11.30;99.90
13598;DHT22;38563;54.258;12.574;2022-09-17T11:40:28;11.30;99.90
13598;DHT22;38563;54.258;12.574;2022-09-17T11:43:02;11.40;99.90
13598;DHT22;38563;54.258;12.574;2022-09-17T11:45:33;11.60;99.90
13598;DHT22;38563;54.258;12.574;2022-09-17T11:48:04;11.70;99.90
13598;DHT22;38563;54.258;12.574;2022-09-17T11:50:36;11.80;99.90
13598;DHT22;38563;54.258;12.574;2022-09-17T11:53:08;11.90;99.90
13598;DHT22;38563;54.258;12.574;2022-09-17T11:55:41;11.90;99.90
13598;DHT22;38563;54.258;12.574;2022-09-17T11:58:15;11.90;99.90
13598;DHT22;38563;54.258;12.574;2022-09-17T12:00:51;11.80;99.90
13598;DHT22;38563;54.258;12.574;2022-09-17T12:03:25;11.80;99.90
13598;DHT22;38563;54.258;12.574;2022-09-17T12:05:57;11.70;99.90
13598;DHT22;38563;54.258;12.574;2022-09-17T12:08:28;11.80;99.90
13598;DHT22;38563;54.258;12.574;2022-09-17T12:11:05;11.80;99.90
13598;DHT22;38563;54.258;12.574;2022-09-17T12:13:40;11.80;99.90
13598;DHT22;38563;54.258;12.574;2022-09-17T12:16:15;11.80;99.90
13598;DHT22;38563;54.258;12.574;2022-09-17T12:18:51;11.80;99.90
13598;DHT22;38563;54.258;12.574;2022-09-17T12:21:23;11.70;99.90
13598;DHT22;38563;54.258;12.574;2022-09-17T12:23:54;11.70;99.90
13598;DHT22;38563;54.258;12.574;2022-09-17T12:26:31;11.60;99.90
13598;DHT22;38563;54.258;12.574;2022-09-17T12:29:05;11.50;99.90
13598;DHT22;38563;54.258;12.574;2022-09-17T12:31:41;11.50;99.90
13598;DHT22;38563;54.258;12.574;2022-09-17T12:34:22;11.50;99.90
13598;DHT22;38563;54.258;12.574;2022-09-17T12:36:58;11.40;99.90
13598;DHT22;38563;54.258;12.574;2022-09-17T12:45:42;11.30;99.90
13598;DHT22;38563;54.258;12.574;2022-09-17T12:48:39;11.30;99.90
13598;DHT22;38563;54.258;12.574;2022-09-17T12:51:20;11.30;99.90
13598;DHT22;38563;54.258;12.574;2022-09-17T12:54:01;11.20;99.90
13598;DHT22;38563;54.258;12.574;2022-09-17T12:56:48;11.20;99.90
13598;DHT22;38563;54.258;12.574;2022-09-17T12:59:20;11.10;99.90
13598;DHT22;38563;54.258;12.574;2022-09-17T13:01:53;11.10;99.90
13598;DHT22;38563;54.258;12.574;2022-09-17T13:04:42;11.10;99.90
13598;DHT22;38563;54.258;12.574;2022-09-17T13:10:27;11.20;99.90
13598;DHT22;38563;54.258;12.574;2022-09-17T13:13:07;11.30;99.90
13598;DHT22;38563;54.258;12.574;2022-09-17T13:15:40;11.30;99.90
13598;DHT22;38563;54.258;12.574;2022-09-17T13:18:16;11.40;99.90
13598;DHT22;38563;54.258;12.574;2022-09-17T13:20:56;11.50;99.90
13598;DHT22;38563;54.258;12.574;2022-09-17T13:23:34;11.50;99.90
13598;DHT22;38563;54.258;12.574;2022-09-17T13:26:03;11.60;99.90
13598;DHT22;38563;54.258;12.574;2022-09-17T13:28:40;11.60;99.90
13598;DHT22;38563;54.258;12.574;2022-09-17T13:31:07;11.50;99.90
13598;DHT22;38563;54.258;12.574;2022-09-17T13:33:57;11.20;99.90
13598;DHT22;38563;54.258;12.574;2022-09-17T13:36:39;11.10;99.90
13598;DHT22;38563;54.258;12.574;2022-09-17T13:39:08;11.10;99.90
13598;DHT22;38563;54.258;12.574;2022-09-17T13:41:38;11.10;99.90
13598;DHT22;38563;54.258;12.574;2022-09-17T13:44:06;11.00;99.90
13598;DHT22;38563;54.258;12.574;2022-09-17T13:46:35;11.00;99.90
13598;DHT22;38563;54.258;12.574;2022-09-17T13:49:10;11.10;99.90
13598;DHT22;38563;54.258;12.574;2022-09-17T13:51:52;11.10;99.90
13598;DHT22;38563;54.258;12.574;2022-09-17T13:54:21;11.00;99.90
13598;DHT22;38563;54.258;12.574;2022-09-17T13:57:12;11.10;99.90
13598;DHT22;38563;54.258;12.574;2022-09-17T13:59:52;11.00;99.90
13598;DHT22;38563;54.258;12.574;2022-09-17T14:02:34;11.10;99.90
13598;DHT22;38563;54.258;12.574;2022-09-17T14:05:35;11.00;99.90
13598;DHT22;38563;54.258;12.574;2022-09-17T14:08:14;11.00;99.90
13598;DHT22;38563;54.258;12.574;2022-09-17T14:10:52;11.00;99.90
13598;DHT22;38563;54.258;12.574;2022-09-17T14:13:42;11.00;99.90
13598;DHT22;38563;54.258;12.574;2022-09-17T14:16:46;11.00;99.90
13598;DHT22;38563;54.258;12.574;2022-09-17T14:19:31;11.00;99.90
13598;DHT22;38563;54.258;12.574;2022-09-17T14:22:12;11.00;99.90
13598;DHT22;38563;54.258;12.574;2022-09-17T14:24:46;11.00;99.90
13598;DHT22;38563;54.258;12.574;2022-09-17T14:27:33;11.00;99.90
13598;DHT22;38563;54.258;12.574;2022-09-17T14:30:12;11.00;99.90
13598;DHT22;38563;54.258;12.574;2022-09-17T14:32:44;11.00;99.90
13598;DHT22;38563;54.258;12.574;2022-09-17T14:35:14;11.00;99.90
13598;DHT22;38563;54.258;12.574;2022-09-17T14:37:45;11.00;99.90
13598;DHT22;38563;54.258;12.574;2022-09-17T14:40:17;11.10;99.90
13598;DHT22;38563;54.258;12.574;2022-09-17T14:42:45;11.20;99.90
13598;DHT22;38563;54.258;12.574;2022-09-17T14:45:15;11.20;99.90
13598;DHT22;38563;54.258;12.574;2022-09-17T14:47:43;11.20;99.90
13598;DHT22;38563;54.258;12.574;2022-09-17T14:50:19;11.30;99.90
13598;DHT22;38563;54.258;12.574;2022-09-17T14:52:48;11.30;99.90
13598;DHT22;38563;54.258;12.574;2022-09-17T14:55:17;11.40;99.90
13598;DHT22;38563;54.258;12.574;2022-09-17T14:57:45;11.50;99.90
13598;DHT22;38563;54.258;12.574;2022-09-17T15:00:17;11.60;99.90
13598;DHT22;38563;54.258;12.574;2022-09-17T15:02:49;11.70;99.90
13598;DHT22;38563;54.258;12.574;2022-09-17T15:05:28;11.70;99.90
13598;DHT22;38563;54.258;12.574;2022-09-17T15:08:13;11.90;99.90
13598;DHT22;38563;54.258;12.574;2022-09-17T15:10:46;12.00;99.90
13598;DHT22;38563;54.258;12.574;2022-09-17T15:13:16;12.10;99.90
13598;DHT22;38563;54.258;12.574;2022-09-17T15:15:58;12.10;99.90
13598;DHT22;38563;54.258;12.574;2022-09-17T15:18:46;12.10;99.90
13598;DHT22;38563;54.258;12.574;2022-09-17T15:21:22;12.20;99.90
13598;DHT22;38563;54.258;12.574;2022-09-17T15:23:57;12.20;99.90
13598;DHT22;38563;54.258;12.574;2022-09-17T15:26:29;12.20;99.90
13598;DHT22;38563;54.258;12.574;2022-09-17T15:28:57;12.20;99.90
13598;DHT22;38563;54.258;12.574;2022-09-17T15:31:27;12.20;99.90
13598;DHT22;38563;54.258;12.574;2022-09-17T15:33:54;12.10;99.90
13598;DHT22;38563;54.258;12.574;2022-09-17T15:36:25;12.10;99.90
13598;DHT22;38563;54.258;12.574;2022-09-17T15:38:52;12.10;99.90
13598;DHT22;38563;54.258;12.574;2022-09-17T15:41:26;12.10;99.90
13598;DHT22;38563;54.258;12.574;2022-09-17T15:43:56;12.10;99.90
13598;DHT22;38563;54.258;12.574;2022-09-17T15:46:31;12.10;99.90
13598;DHT22;38563;54.258;12.574;2022-09-17T15:49:00;12.00;99.90
13598;DHT22;38563;54.258;12.574;2022-09-17T15:51:29;12.00;99.90
13598;DHT22;38563;54.258;12.574;2022-09-17T15:53:57;12.00;99.90
13598;DHT22;38563;54.258;12.574;2022-09-17T15:56:27;11.90;99.90
13598;DHT22;38563;54.258;12.574;2022-09-17T15:58:59;11.90;99.90
13598;DHT22;38563;54.258;12.574;2022-09-17T16:04:25;11.90;99.90
13598;DHT22;38563;54.258;12.574;2022-09-17T16:06:54;11.90;99.90